MSC Mara — V7NF9 — position and weather

sailwx.info

Track history (hours):
 
Tides and Currents Weather Stations Pressure Air Temp Water Temp Dewpoint Dewpoint Depression Visibility Wind Speed Wind Dir Waves Ship Positions

MSC Mara

Last reported at 2014-Dec-22 19:21 UTC. Time now 2014-Dec-23 02:16 UTC.
Position N 40°50' E 014°17'.

Length 294 m; draft 9.5 m.

Type: Ship (hazmat cat C). MMSI: 538002955.

Date/timePositionNaut miles runAvg speedWind from/ knotsBaromVisibWave heightAir tempDewpointWater temp
2014-Dec-22 19:21N 40°50' E 014°17'2 2.3
2014-Dec-22 18:33N 40°49' E 014°18'1 1.1
2014-Dec-22 17:18N 40°49' E 014°16'0 0.2
2014-Dec-22 16:30N 40°49' E 014°16'0 0.1
2014-Dec-22 15:33N 40°49' E 014°16'25212.0
2014-Dec-21 18:31N 43°06' E 009°32'1414.7
2014-Dec-21 17:34N 43°20' E 009°36'1514.7
2014-Dec-21 16:33N 43°34' E 009°41'1514.8
2014-Dec-21 15:34N 43°48' E 009°47'1414.3
2014-Dec-21 14:34N 44°02' E 009°52'5 4.5
2014-Dec-21 13:32N 44°06' E 009°51'0 0.0
2014-Dec-21 12:32N 44°06' E 009°51'0 0.0
2014-Dec-21 11:32N 44°06' E 009°51'0 0.0
2014-Dec-21 10:32N 44°06' E 009°51'0 0.0
2014-Dec-21 09:29N 44°06' E 009°51'0 0.0
2014-Dec-21 08:32N 44°06' E 009°51'0 0.0
2014-Dec-21 07:32N 44°06' E 009°51'0 0.0
2014-Dec-21 06:32N 44°06' E 009°51'0 0.0
2014-Dec-21 05:32N 44°06' E 009°51'0 0.0
2014-Dec-21 04:29N 44°06' E 009°51'0 0.0
2014-Dec-21 03:32N 44°06' E 009°51'0 0.0
2014-Dec-21 02:32N 44°06' E 009°51'0 0.0
2014-Dec-21 01:32N 44°06' E 009°51'0 0.0
2014-Dec-21 00:32N 44°06' E 009°51'0 0.0
2014-Dec-20 23:32N 44°06' E 009°51'0 0.0
2014-Dec-20 22:32N 44°06' E 009°51'0 0.0
2014-Dec-20 21:32N 44°06' E 009°51'1 1.3
2014-Dec-20 20:33N 44°05' E 009°51'6 5.8
2014-Dec-20 19:34N 43°60' E 009°53'0 0.2
2014-Dec-20 18:31N 43°60' E 009°53'0 0.0
2014-Dec-20 17:31N 43°60' E 009°53'0 0.0
2014-Dec-20 16:31N 43°60' E 009°53'0 0.0
2014-Dec-20 15:31N 43°60' E 009°53'0 0.0
2014-Dec-20 14:31N 43°60' E 009°53'0 0.0
2014-Dec-20 13:31N 43°60' E 009°53'0 0.0
2014-Dec-20 12:31N 43°60' E 009°53'0 0.0
2014-Dec-20 11:31N 43°60' E 009°53'1 1.5
2014-Dec-20 10:33N 44°00' E 009°55'1615.7
2014-Dec-20 09:33N 43°52' E 009°36'1716.5
2014-Dec-20 08:33N 43°44' E 009°16'1616.2
2014-Dec-20 07:33N 43°37' E 008°56'1716.8
2014-Dec-20 06:33N 43°30' E 008°35'12117.3
2014-Dec-19 23:34N 42°56' E 005°55'1918.6
2014-Dec-19 22:32N 43°03' E 005°31'2317.9
2014-Dec-19 21:16N 43°11' E 005°02'1115.8
2014-Dec-19 20:33N 43°22' E 004°58'7 6.3
2014-Dec-19 19:31N 43°25' E 004°50'0 0.0
2014-Dec-19 17:31N 43°25' E 004°50'0 0.0
2014-Dec-19 16:31N 43°25' E 004°50'0 0.0
2014-Dec-19 15:25N 43°25' E 004°50'0 0.0
2014-Dec-19 14:31N 43°25' E 004°50'0 0.0
2014-Dec-19 13:31N 43°25' E 004°50'0 0.0
2014-Dec-19 12:31N 43°25' E 004°50'0 0.0
2014-Dec-19 11:31N 43°25' E 004°50'0 0.0
2014-Dec-19 10:31N 43°25' E 004°50'0 0.0
2014-Dec-19 09:31N 43°25' E 004°50'0 0.0
2014-Dec-19 08:31N 43°25' E 004°50'0 0.0
2014-Dec-19 07:31N 43°25' E 004°50'0 0.0
2014-Dec-19 06:31N 43°25' E 004°50'0 0.0
2014-Dec-19 05:31N 43°25' E 004°50'0 0.0
2014-Dec-19 04:31N 43°25' E 004°50'1 1.1
2014-Dec-19 03:34N 43°25' E 004°51'8 7.5
2014-Dec-19 02:33N 43°20' E 004°59'1110.7
2014-Dec-19 01:34N 43°09' E 005°01'2017.5
2014-Dec-19 00:24N 42°53' E 004°45'1618.7
2014-Dec-18 23:33N 42°40' E 004°32'1818.1
2014-Dec-18 22:33N 42°25' E 004°18'1817.6
2014-Dec-18 21:33N 42°10' E 004°04'1717.5
2014-Dec-18 20:33N 41°56' E 003°51'1717.1
2014-Dec-18 19:33N 41°44' E 003°35'1818.1
2014-Dec-18 18:33N 41°32' E 003°17'1919.0
2014-Dec-18 17:33N 41°19' E 002°59'1818.4
2014-Dec-18 16:34N 41°06' E 002°41'1918.6
2014-Dec-18 15:33N 40°53' E 002°23'1818.1
2014-Dec-18 14:33N 40°41' E 002°06'1918.9
2014-Dec-18 13:33N 40°28' E 001°48'1919.2
2014-Dec-18 12:33N 40°15' E 001°29'1918.7
2014-Dec-18 11:33N 40°02' E 001°11'1918.1
2014-Dec-18 10:31N 39°49' E 000°54'5619.1
2014-Dec-18 07:34N 39°26' W 000°13'5 4.6
2014-Dec-18 06:29N 39°26' W 000°20'0 0.0
2014-Dec-18 05:32N 39°26' W 000°20'0 0.0
2014-Dec-18 04:32N 39°26' W 000°20'0 0.0
2014-Dec-18 03:29N 39°26' W 000°20'0 0.0
2014-Dec-18 02:32N 39°26' W 000°20'0 0.0
2014-Dec-18 01:32N 39°26' W 000°20'0 0.0
2014-Dec-18 00:32N 39°26' W 000°20'0 0.0
2014-Dec-17 23:32N 39°26' W 000°20'0 0.2
2014-Dec-17 22:32N 39°26' W 000°19'0 0.1
2014-Dec-17 21:32N 39°26' W 000°20'0 0.0
2014-Dec-17 20:31N 39°26' W 000°20'0 0.0
2014-Dec-17 19:31N 39°26' W 000°20'0 0.0
2014-Dec-17 18:25N 39°26' W 000°20'0 0.0
2014-Dec-17 17:31N 39°26' W 000°20'0 0.0
2014-Dec-17 16:31N 39°26' W 000°20'0 0.0
2014-Dec-17 15:31N 39°26' W 000°20'0 0.0
2014-Dec-17 14:31N 39°26' W 000°20'0 0.0
2014-Dec-17 13:31N 39°26' W 000°20'0 0.0
2014-Dec-17 12:22N 39°26' W 000°20'0 0.0
2014-Dec-17 11:31N 39°26' W 000°20'0 0.0
2014-Dec-17 10:31N 39°26' W 000°20'0 0.0
2014-Dec-17 09:28N 39°26' W 000°20'0 0.0
2014-Dec-17 08:31N 39°26' W 000°20'0 0.0
2014-Dec-17 07:28N 39°26' W 000°20'2 2.0
2014-Dec-17 06:33N 39°26' W 000°17'1212.3
2014-Dec-17 05:34N 39°24' W 000°02'5014.6
2014-Dec-17 02:10N 39°21' E 001°02'914.7
2014-Dec-17 01:33N 39°21' E 001°14'1514.9
2014-Dec-17 00:33N 39°20' E 001°33'1514.8
2014-Dec-16 23:33N 39°18' E 001°52'1515.0
2014-Dec-16 22:33N 39°13' E 002°10'1514.8
2014-Dec-16 21:33N 39°08' E 002°28'1515.0
2014-Dec-16 20:33N 39°03' E 002°47'1514.9
2014-Dec-16 19:33N 38°59' E 003°05'1514.8
2014-Dec-16 18:33N 38°56' E 003°24'1717.0
2014-Dec-16 17:33N 38°52' E 003°45'  
2014-Dec-14 01:09N 36°49' E 023°30'4015.4
2014-Dec-13 22:33N 37°28' E 023°40'1414.1
2014-Dec-13 21:33N 37°42' E 023°40'1414.3
2014-Dec-13 20:33N 37°56' E 023°37'2 1.5
2014-Dec-13 19:33N 37°57' E 023°35'0 0.0
2014-Dec-13 18:33N 37°57' E 023°35'0 0.0
2014-Dec-13 17:33N 37°57' E 023°35'0 0.0
2014-Dec-13 16:33N 37°57' E 023°35'0 0.0
2014-Dec-13 15:33N 37°57' E 023°35'0 0.0
2014-Dec-13 14:33N 37°57' E 023°35'0 0.0
2014-Dec-13 13:33N 37°57' E 023°35'0 0.0
2014-Dec-13 12:33N 37°57' E 023°35'0 0.0
2014-Dec-13 11:33N 37°57' E 023°35'0 0.0
2014-Dec-13 10:33N 37°57' E 023°35'0 0.0
2014-Dec-13 09:33N 37°57' E 023°35'0 0.0
2014-Dec-13 08:33N 37°57' E 023°35'0 0.0
2014-Dec-13 07:33N 37°57' E 023°35'0 0.0
2014-Dec-13 06:33N 37°57' E 023°35'2 1.9
2014-Dec-13 05:33N 37°55' E 023°36'0 0.4
2014-Dec-13 04:33N 37°55' E 023°36'7 7.1
2014-Dec-13 03:33N 37°49' E 023°40'9 9.2
2014-Dec-13 02:33N 37°41' E 023°46'2914.6
2014-Dec-13 00:33N 37°14' E 024°00'1615.8
2014-Dec-12 23:33N 36°58' E 024°04'1615.8
2014-Dec-12 22:33N 36°43' E 024°11'1515.2
2014-Dec-12 21:33N 36°31' E 024°22'1616.4
2014-Dec-12 20:33N 36°22' E 024°39'1716.7
2014-Dec-12 19:33N 36°14' E 024°57'  
Track history (hours):
 
Tides and Currents Weather Stations Pressure Air Temp Water Temp Dewpoint Dewpoint Depression Visibility Wind Speed Wind Dir Waves Ship Positions

MSC Mara

Last reported at 2014-Dec-22 19:21 UTC. Time now 2014-Dec-23 02:16 UTC.
Position N 40°50' E 014°17'.

Length 294 m; draft 9.5 m.

Type: Ship (hazmat cat C). MMSI: 538002955.

Date/timePositionNaut miles runAvg speedWind from/ knotsBaromVisibWave heightAir tempDewpointWater temp
2014-Dec-22 19:21N 40°50' E 014°17'2 2.3
2014-Dec-22 18:33N 40°49' E 014°18'1 1.1
2014-Dec-22 17:18N 40°49' E 014°16'0 0.2
2014-Dec-22 16:30N 40°49' E 014°16'0 0.1
2014-Dec-22 15:33N 40°49' E 014°16'25212.0
2014-Dec-21 18:31N 43°06' E 009°32'1414.7
2014-Dec-21 17:34N 43°20' E 009°36'1514.7
2014-Dec-21 16:33N 43°34' E 009°41'1514.8
2014-Dec-21 15:34N 43°48' E 009°47'1414.3
2014-Dec-21 14:34N 44°02' E 009°52'5 4.5
2014-Dec-21 13:32N 44°06' E 009°51'0 0.0
2014-Dec-21 12:32N 44°06' E 009°51'0 0.0
2014-Dec-21 11:32N 44°06' E 009°51'0 0.0
2014-Dec-21 10:32N 44°06' E 009°51'0 0.0
2014-Dec-21 09:29N 44°06' E 009°51'0 0.0
2014-Dec-21 08:32N 44°06' E 009°51'0 0.0
2014-Dec-21 07:32N 44°06' E 009°51'0 0.0
2014-Dec-21 06:32N 44°06' E 009°51'0 0.0
2014-Dec-21 05:32N 44°06' E 009°51'0 0.0
2014-Dec-21 04:29N 44°06' E 009°51'0 0.0
2014-Dec-21 03:32N 44°06' E 009°51'0 0.0
2014-Dec-21 02:32N 44°06' E 009°51'0 0.0
2014-Dec-21 01:32N 44°06' E 009°51'0 0.0
2014-Dec-21 00:32N 44°06' E 009°51'0 0.0
2014-Dec-20 23:32N 44°06' E 009°51'0 0.0
2014-Dec-20 22:32N 44°06' E 009°51'0 0.0
2014-Dec-20 21:32N 44°06' E 009°51'1 1.3
2014-Dec-20 20:33N 44°05' E 009°51'6 5.8
2014-Dec-20 19:34N 43°60' E 009°53'0 0.2
2014-Dec-20 18:31N 43°60' E 009°53'0 0.0
2014-Dec-20 17:31N 43°60' E 009°53'0 0.0
2014-Dec-20 16:31N 43°60' E 009°53'0 0.0
2014-Dec-20 15:31N 43°60' E 009°53'0 0.0
2014-Dec-20 14:31N 43°60' E 009°53'0 0.0
2014-Dec-20 13:31N 43°60' E 009°53'0 0.0
2014-Dec-20 12:31N 43°60' E 009°53'0 0.0
2014-Dec-20 11:31N 43°60' E 009°53'1 1.5
2014-Dec-20 10:33N 44°00' E 009°55'1615.7
2014-Dec-20 09:33N 43°52' E 009°36'1716.5
2014-Dec-20 08:33N 43°44' E 009°16'1616.2
2014-Dec-20 07:33N 43°37' E 008°56'1716.8
2014-Dec-20 06:33N 43°30' E 008°35'12117.3
2014-Dec-19 23:34N 42°56' E 005°55'1918.6
2014-Dec-19 22:32N 43°03' E 005°31'2317.9
2014-Dec-19 21:16N 43°11' E 005°02'1115.8
2014-Dec-19 20:33N 43°22' E 004°58'7 6.3
2014-Dec-19 19:31N 43°25' E 004°50'0 0.0
2014-Dec-19 17:31N 43°25' E 004°50'0 0.0
2014-Dec-19 16:31N 43°25' E 004°50'0 0.0
2014-Dec-19 15:25N 43°25' E 004°50'0 0.0
2014-Dec-19 14:31N 43°25' E 004°50'0 0.0
2014-Dec-19 13:31N 43°25' E 004°50'0 0.0
2014-Dec-19 12:31N 43°25' E 004°50'0 0.0
2014-Dec-19 11:31N 43°25' E 004°50'0 0.0
2014-Dec-19 10:31N 43°25' E 004°50'0 0.0
2014-Dec-19 09:31N 43°25' E 004°50'0 0.0
2014-Dec-19 08:31N 43°25' E 004°50'0 0.0
2014-Dec-19 07:31N 43°25' E 004°50'0 0.0
2014-Dec-19 06:31N 43°25' E 004°50'0 0.0
2014-Dec-19 05:31N 43°25' E 004°50'0 0.0
2014-Dec-19 04:31N 43°25' E 004°50'1 1.1
2014-Dec-19 03:34N 43°25' E 004°51'8 7.5
2014-Dec-19 02:33N 43°20' E 004°59'1110.7
2014-Dec-19 01:34N 43°09' E 005°01'2017.5
2014-Dec-19 00:24N 42°53' E 004°45'1618.7
2014-Dec-18 23:33N 42°40' E 004°32'1818.1
2014-Dec-18 22:33N 42°25' E 004°18'1817.6
2014-Dec-18 21:33N 42°10' E 004°04'1717.5
2014-Dec-18 20:33N 41°56' E 003°51'1717.1
2014-Dec-18 19:33N 41°44' E 003°35'1818.1
2014-Dec-18 18:33N 41°32' E 003°17'1919.0
2014-Dec-18 17:33N 41°19' E 002°59'1818.4
2014-Dec-18 16:34N 41°06' E 002°41'1918.6
2014-Dec-18 15:33N 40°53' E 002°23'1818.1
2014-Dec-18 14:33N 40°41' E 002°06'1918.9
2014-Dec-18 13:33N 40°28' E 001°48'1919.2
2014-Dec-18 12:33N 40°15' E 001°29'1918.7
2014-Dec-18 11:33N 40°02' E 001°11'1918.1
2014-Dec-18 10:31N 39°49' E 000°54'5619.1
2014-Dec-18 07:34N 39°26' W 000°13'5 4.6
2014-Dec-18 06:29N 39°26' W 000°20'0 0.0
2014-Dec-18 05:32N 39°26' W 000°20'0 0.0
2014-Dec-18 04:32N 39°26' W 000°20'0 0.0
2014-Dec-18 03:29N 39°26' W 000°20'0 0.0
2014-Dec-18 02:32N 39°26' W 000°20'0 0.0
2014-Dec-18 01:32N 39°26' W 000°20'0 0.0
2014-Dec-18 00:32N 39°26' W 000°20'0 0.0
2014-Dec-17 23:32N 39°26' W 000°20'0 0.2
2014-Dec-17 22:32N 39°26' W 000°19'0 0.1
2014-Dec-17 21:32N 39°26' W 000°20'0 0.0
2014-Dec-17 20:31N 39°26' W 000°20'0 0.0
2014-Dec-17 19:31N 39°26' W 000°20'0 0.0
2014-Dec-17 18:25N 39°26' W 000°20'0 0.0
2014-Dec-17 17:31N 39°26' W 000°20'0 0.0
2014-Dec-17 16:31N 39°26' W 000°20'0 0.0
2014-Dec-17 15:31N 39°26' W 000°20'0 0.0
2014-Dec-17 14:31N 39°26' W 000°20'0 0.0
2014-Dec-17 13:31N 39°26' W 000°20'0 0.0
2014-Dec-17 12:22N 39°26' W 000°20'0 0.0
2014-Dec-17 11:31N 39°26' W 000°20'0 0.0
2014-Dec-17 10:31N 39°26' W 000°20'0 0.0
2014-Dec-17 09:28N 39°26' W 000°20'0 0.0
2014-Dec-17 08:31N 39°26' W 000°20'0 0.0
2014-Dec-17 07:28N 39°26' W 000°20'2 2.0
2014-Dec-17 06:33N 39°26' W 000°17'1212.3
2014-Dec-17 05:34N 39°24' W 000°02'5014.6
2014-Dec-17 02:10N 39°21' E 001°02'914.7
2014-Dec-17 01:33N 39°21' E 001°14'1514.9
2014-Dec-17 00:33N 39°20' E 001°33'1514.8
2014-Dec-16 23:33N 39°18' E 001°52'1515.0
2014-Dec-16 22:33N 39°13' E 002°10'1514.8
2014-Dec-16 21:33N 39°08' E 002°28'1515.0
2014-Dec-16 20:33N 39°03' E 002°47'1514.9
2014-Dec-16 19:33N 38°59' E 003°05'1514.8
2014-Dec-16 18:33N 38°56' E 003°24'1717.0
2014-Dec-16 17:33N 38°52' E 003°45'  
2014-Dec-14 01:09N 36°49' E 023°30'4015.4
2014-Dec-13 22:33N 37°28' E 023°40'1414.1
2014-Dec-13 21:33N 37°42' E 023°40'1414.3
2014-Dec-13 20:33N 37°56' E 023°37'2 1.5
2014-Dec-13 19:33N 37°57' E 023°35'0 0.0
2014-Dec-13 18:33N 37°57' E 023°35'0 0.0
2014-Dec-13 17:33N 37°57' E 023°35'0 0.0
2014-Dec-13 16:33N 37°57' E 023°35'0 0.0
2014-Dec-13 15:33N 37°57' E 023°35'0 0.0
2014-Dec-13 14:33N 37°57' E 023°35'0 0.0
2014-Dec-13 13:33N 37°57' E 023°35'0 0.0
2014-Dec-13 12:33N 37°57' E 023°35'0 0.0
2014-Dec-13 11:33N 37°57' E 023°35'0 0.0
2014-Dec-13 10:33N 37°57' E 023°35'0 0.0
2014-Dec-13 09:33N 37°57' E 023°35'0 0.0
2014-Dec-13 08:33N 37°57' E 023°35'0 0.0
2014-Dec-13 07:33N 37°57' E 023°35'0 0.0
2014-Dec-13 06:33N 37°57' E 023°35'2 1.9
2014-Dec-13 05:33N 37°55' E 023°36'0 0.4
2014-Dec-13 04:33N 37°55' E 023°36'7 7.1
2014-Dec-13 03:33N 37°49' E 023°40'9 9.2
2014-Dec-13 02:33N 37°41' E 023°46'2914.6
2014-Dec-13 00:33N 37°14' E 024°00'1615.8
2014-Dec-12 23:33N 36°58' E 024°04'1615.8
2014-Dec-12 22:33N 36°43' E 024°11'1515.2
2014-Dec-12 21:33N 36°31' E 024°22'1616.4
2014-Dec-12 20:33N 36°22' E 024°39'1716.7
2014-Dec-12 19:33N 36°14' E 024°57'  

Dump ship's entire track history